Time;durP1;ratioP1;P1;durP2;ratioP2;P2;SDS_P1;SDS_P2;PMS_P1;PMS_P2;Temp;Humidity;BMP_temperature;BMP_pressure;BME280_temperature;BME280_humidity;BME280_pressure;Samples;Min_cycle;Max_cycle;Signal;HPM_P1;HPM_P2
2021/11/13 00:00:17;;;;;;;130.30;57.70;;;5.10;99.90;;;;;;5095828;28;20020;-66
2021/11/13 00:02:43;;;;;;;137.65;59.63;;;5.10;99.90;;;;;;5096037;28;20020;-65
2021/11/13 00:05:10;;;;;;;133.80;60.33;;;5.10;99.90;;;;;;5096005;28;20042;-65
2021/11/13 00:07:36;;;;;;;148.50;60.22;;;5.10;99.90;;;;;;5095911;28;20070;-65
2021/11/13 00:10:03;;;;;;;133.85;56.03;;;5.10;99.90;;;;;;5095366;28;20020;-65
2021/11/13 00:12:29;;;;;;;135.90;60.17;;;5.10;99.90;;;;;;5096060;28;20020;-65
2021/11/13 00:14:55;;;;;;;151.27;62.20;;;5.10;99.90;;;;;;5095911;28;20482;-65
2021/11/13 00:17:20;;;;;;;145.82;59.30;;;5.10;99.90;;;;;;5095937;28;20039;-66
2021/11/13 00:19:46;;;;;;;143.80;59.88;;;5.20;99.90;;;;;;5095299;28;20149;-65
2021/11/13 00:22:12;;;;;;;143.63;60.20;;;5.20;99.90;;;;;;5095773;28;20035;-65
2021/11/13 00:24:37;;;;;;;156.35;61.47;;;5.20;99.90;;;;;;5095620;28;20024;-65
2021/11/13 00:27:05;;;;;;;138.15;59.33;;;5.30;99.90;;;;;;5095601;28;20020;-65
2021/11/13 00:29:31;;;;;;;138.88;59.63;;;5.40;99.90;;;;;;5095193;28;20035;-65
2021/11/13 00:31:56;;;;;;;134.50;59.35;;;5.50;99.90;;;;;;5095294;28;20035;-66
2021/11/13 00:34:23;;;;;;;139.20;61.15;;;5.50;99.90;;;;;;5095943;28;20455;-66
2021/11/13 00:36:49;;;;;;;139.65;59.40;;;5.60;99.90;;;;;;5094743;28;20386;-65
2021/11/13 00:39:14;;;;;;;127.95;56.53;;;5.60;99.90;;;;;;5095208;28;20111;-66
2021/11/13 00:41:40;;;;;;;128.63;57.45;;;5.60;99.90;;;;;;5095498;28;20120;-66
2021/11/13 00:44:06;;;;;;;137.15;57.72;;;5.60;99.90;;;;;;5095362;28;20028;-65
2021/11/13 00:46:32;;;;;;;140.60;59.22;;;5.70;99.90;;;;;;5094650;28;20024;-65
2021/11/13 00:48:57;;;;;;;145.18;57.03;;;5.70;99.90;;;;;;5095189;28;20033;-65
2021/11/13 00:51:23;;;;;;;128.60;54.50;;;5.80;99.90;;;;;;5095034;28;20118;-65
2021/11/13 00:53:49;;;;;;;119.38;57.47;;;5.80;99.90;;;;;;5095355;28;20020;-65
2021/11/13 00:56:14;;;;;;;134.40;56.80;;;5.80;99.90;;;;;;5094744;28;20016;-64
2021/11/13 00:58:40;;;;;;;119.57;53.58;;;5.80;99.90;;;;;;5095282;28;20027;-65
2021/11/13 01:01:06;;;;;;;106.15;50.10;;;5.90;99.90;;;;;;5094971;28;20150;-65
2021/11/13 01:03:33;;;;;;;113.85;54.05;;;6.00;99.90;;;;;;5095118;28;20020;-65
2021/11/13 01:05:58;;;;;;;112.88;52.08;;;6.00;99.90;;;;;;5095100;28;20020;-65
2021/11/13 01:08:24;;;;;;;107.90;49.35;;;6.00;99.90;;;;;;5094733;28;20040;-65
2021/11/13 01:10:51;;;;;;;106.13;49.08;;;6.00;99.90;;;;;;5094403;28;20024;-65
2021/11/13 01:13:17;;;;;;;112.60;51.58;;;6.10;99.90;;;;;;5094649;28;20024;-65
2021/11/13 01:15:43;;;;;;;106.75;51.75;;;6.10;99.90;;;;;;5094599;28;20077;-65
2021/11/13 01:18:09;;;;;;;106.97;51.28;;;6.10;99.90;;;;;;5094807;28;20020;-66
2021/11/13 01:20:35;;;;;;;100.85;51.95;;;6.10;99.90;;;;;;5094590;28;20028;-65
2021/11/13 01:23:00;;;;;;;113.88;49.72;;;6.10;99.90;;;;;;5094669;28;20020;-65
2021/11/13 01:25:28;;;;;;;103.35;49.67;;;6.10;99.90;;;;;;5094154;28;20028;-65
2021/11/13 01:27:54;;;;;;;100.07;49.20;;;6.20;99.90;;;;;;5094405;28;20028;-65
2021/11/13 01:30:19;;;;;;;99.18;49.63;;;6.20;99.90;;;;;;5094418;28;20055;-65
2021/11/13 01:32:45;;;;;;;102.00;48.55;;;6.20;99.90;;;;;;5117101;22;20399;-68
2021/11/13 01:35:12;;;;;;;107.78;50.42;;;6.20;99.90;;;;;;5094176;28;20090;-68
2021/11/13 01:37:38;;;;;;;98.95;47.67;;;6.20;99.90;;;;;;5094182;28;20036;-68
2021/11/13 01:40:06;;;;;;;103.38;49.40;;;6.30;99.90;;;;;;5093683;28;20035;-68
2021/11/13 01:42:33;;;;;;;108.82;49.35;;;6.20;99.90;;;;;;5094282;28;20024;-68
2021/11/13 01:45:00;;;;;;;111.45;50.80;;;6.20;99.90;;;;;;5094349;28;20471;-68
2021/11/13 01:47:26;;;;;;;108.03;49.28;;;6.20;99.90;;;;;;5093436;28;20024;-68
2021/11/13 01:49:52;;;;;;;102.63;50.30;;;6.20;99.90;;;;;;5093575;28;20030;-68
2021/11/13 01:52:17;;;;;;;100.97;47.75;;;6.20;99.90;;;;;;5093870;28;20475;-68
2021/11/13 01:54:44;;;;;;;104.28;49.90;;;6.30;99.90;;;;;;5093845;28;20046;-68
2021/11/13 01:57:19;;;;;;;97.97;49.45;;;6.30;99.90;;;;;;5093382;28;20383;-68
2021/11/13 01:59:45;;;;;;;97.72;49.85;;;6.30;99.90;;;;;;5094128;28;20032;-68
2021/11/13 02:02:11;;;;;;;121.55;52.28;;;6.30;99.90;;;;;;5093435;28;20052;-68
2021/11/13 02:04:37;;;;;;;103.10;48.85;;;6.20;99.90;;;;;;5093658;28;20502;-68
2021/11/13 02:07:02;;;;;;;110.70;51.40;;;6.20;99.90;;;;;;5093680;28;20099;-68
2021/11/13 02:09:28;;;;;;;106.45;51.22;;;6.20;99.90;;;;;;5074989;28;20024;-68
2021/11/13 02:11:55;;;;;;;105.82;50.10;;;6.20;99.90;;;;;;5093522;28;20032;-68
2021/11/13 02:14:20;;;;;;;101.00;48.35;;;6.20;99.90;;;;;;5093781;28;20369;-68
2021/11/13 02:16:46;;;;;;;131.80;52.03;;;6.20;99.90;;;;;;5093559;28;20031;-68
2021/11/13 02:19:12;;;;;;;114.13;50.80;;;6.20;99.90;;;;;;5093118;28;20024;-67
2021/11/13 02:21:38;;;;;;;104.63;48.58;;;6.20;99.90;;;;;;5093444;28;20028;-68
2021/11/13 02:24:04;;;;;;;112.65;52.13;;;6.20;99.90;;;;;;5093441;28;20032;-68
2021/11/13 02:26:32;;;;;;;117.45;50.40;;;6.20;99.90;;;;;;5093439;28;20074;-68
2021/11/13 02:28:59;;;;;;;115.93;51.90;;;6.20;99.90;;;;;;5093416;28;20094;-68
2021/11/13 02:31:46;;;;;;;108.68;49.25;;;6.10;99.90;;;;;;5093506;28;20382;-68
2021/11/13 02:34:12;;;;;;;113.85;50.50;;;6.20;99.90;;;;;;5092908;28;20028;-67
2021/11/13 02:36:38;;;;;;;117.70;50.40;;;6.10;99.90;;;;;;5093294;28;20052;-67
2021/11/13 02:39:07;;;;;;;121.80;52.50;;;6.10;99.90;;;;;;5072144;28;20038;-67
2021/11/13 02:41:32;;;;;;;121.00;51.67;;;6.10;99.90;;;;;;5093211;28;20107;-67
2021/11/13 02:43:58;;;;;;;115.25;53.45;;;6.10;99.90;;;;;;5092344;28;20111;-67
2021/11/13 02:46:25;;;;;;;115.45;52.75;;;6.10;99.90;;;;;;5079853;28;20128;-67
2021/11/13 02:48:51;;;;;;;123.60;53.60;;;6.10;99.90;;;;;;5093210;28;20035;-67
2021/11/13 02:51:18;;;;;;;110.97;48.33;;;6.10;99.90;;;;;;5093468;28;20070;-67
2021/11/13 02:53:45;;;;;;;118.22;50.88;;;6.10;99.90;;;;;;5093452;28;20423;-67
2021/11/13 02:56:11;;;;;;;108.38;51.10;;;6.20;99.90;;;;;;5092704;28;20471;-67
2021/11/13 02:58:38;;;;;;;110.78;51.47;;;6.20;99.90;;;;;;5093047;28;20080;-68
2021/11/13 03:01:13;;;;;;;115.90;50.40;;;6.20;99.90;;;;;;5077009;28;20069;-68
2021/11/13 03:03:39;;;;;;;121.90;51.83;;;6.20;99.90;;;;;;5097444;28;20363;-68
2021/11/13 03:06:10;;;;;;;116.15;52.10;;;6.20;99.90;;;;;;5078994;28;20077;-68
2021/11/13 03:08:36;;;;;;;111.85;48.90;;;6.20;99.90;;;;;;5096629;28;20395;-68
2021/11/13 03:11:08;;;;;;;109.13;50.63;;;6.10;99.90;;;;;;5097630;28;20024;-68
2021/11/13 03:13:36;;;;;;;114.35;50.80;;;6.20;99.90;;;;;;5097176;28;20077;-68
2021/11/13 03:16:04;;;;;;;113.70;50.35;;;6.10;99.90;;;;;;5096974;28;20024;-68
2021/11/13 03:18:30;;;;;;;121.82;53.05;;;6.20;99.90;;;;;;5096294;28;20502;-67
2021/11/13 03:20:56;;;;;;;123.35;50.72;;;6.10;99.90;;;;;;5096828;28;20107;-68
2021/11/13 03:23:22;;;;;;;116.93;50.28;;;6.10;99.90;;;;;;5078587;28;20022;-68
2021/11/13 03:25:59;;;;;;;114.78;51.20;;;6.10;99.90;;;;;;5097092;28;20536;-68
2021/11/13 03:28:27;;;;;;;119.55;51.95;;;6.10;99.90;;;;;;5096756;28;20119;-68
2021/11/13 03:30:53;;;;;;;113.30;50.58;;;6.10;99.90;;;;;;5096896;28;20035;-68
2021/11/13 03:33:19;;;;;;;117.35;49.13;;;6.10;99.90;;;;;;5095955;28;20032;-68
2021/11/13 03:35:45;;;;;;;113.38;50.03;;;6.20;99.90;;;;;;5096581;28;20028;-68
2021/11/13 03:38:15;;;;;;;112.88;50.35;;;6.10;99.90;;;;;;5078257;28;20024;-68
2021/11/13 03:40:43;;;;;;;115.18;51.10;;;6.20;99.90;;;;;;5096753;28;20133;-68
2021/11/13 03:43:09;;;;;;;114.18;50.33;;;6.10;99.90;;;;;;5096373;28;20016;-68
2021/11/13 03:45:35;;;;;;;119.80;51.90;;;6.10;99.90;;;;;;5095834;28;20068;-68
2021/11/13 03:48:01;;;;;;;115.65;50.95;;;6.10;99.90;;;;;;5096383;28;20035;-68
2021/11/13 03:50:26;;;;;;;112.63;49.40;;;6.20;99.90;;;;;;5096318;28;20388;-68
2021/11/13 03:52:53;;;;;;;113.68;48.38;;;6.20;99.90;;;;;;5096156;28;20028;-67
2021/11/13 03:55:19;;;;;;;117.85;52.35;;;6.20;99.90;;;;;;5078029;28;20046;-68
2021/11/13 03:57:45;;;;;;;114.75;50.00;;;6.20;99.90;;;;;;5096616;28;20523;-68
2021/11/13 04:00:11;;;;;;;120.72;49.72;;;6.20;99.90;;;;;;5095584;28;20032;-68
2021/11/13 04:02:37;;;;;;;114.82;49.88;;;6.20;99.90;;;;;;5096289;28;20052;-68
2021/11/13 04:05:04;;;;;;;119.07;48.67;;;6.20;99.90;;;;;;5096014;28;20020;-68
2021/11/13 04:07:29;;;;;;;116.22;51.65;;;6.20;99.90;;;;;;5096258;28;20107;-68
2021/11/13 04:09:55;;;;;;;107.20;47.33;;;6.20;99.90;;;;;;5095967;28;20103;-68
2021/11/13 04:12:20;;;;;;;116.75;49.47;;;6.20;99.90;;;;;;5094941;28;20031;-67
2021/11/13 04:14:46;;;;;;;109.03;49.60;;;6.20;99.90;;;;;;5095622;28;20063;-68
2021/11/13 04:17:12;;;;;;;115.15;51.10;;;6.20;99.90;;;;;;5085995;28;20028;-68
2021/11/13 04:19:38;;;;;;;125.35;51.47;;;6.20;99.90;;;;;;5075497;28;20020;-68
2021/11/13 04:22:04;;;;;;;124.15;52.35;;;6.20;99.90;;;;;;5090863;28;20020;-68
2021/11/13 04:24:29;;;;;;;109.13;46.25;;;6.20;99.90;;;;;;5096212;28;20027;-68
2021/11/13 04:26:55;;;;;;;118.68;49.10;;;6.20;99.90;;;;;;5084253;28;20567;-68
2021/11/13 04:29:20;;;;;;;122.50;50.42;;;6.20;99.90;;;;;;5075886;28;20103;-68
2021/11/13 04:31:46;;;;;;;114.07;49.05;;;6.20;99.90;;;;;;5075124;28;20089;-68
2021/11/13 04:34:21;;;;;;;116.82;49.70;;;6.20;99.90;;;;;;5075232;28;20506;-67
2021/11/13 04:36:52;;;;;;;123.38;52.78;;;6.20;99.90;;;;;;5095782;28;20099;-68
2021/11/13 04:39:19;;;;;;;120.55;53.25;;;6.20;99.90;;;;;;5095689;28;20486;-68
2021/11/13 04:41:45;;;;;;;125.13;51.28;;;6.20;99.90;;;;;;5095701;28;20154;-68
2021/11/13 04:44:10;;;;;;;133.52;49.20;;;6.20;99.90;;;;;;5094767;28;20539;-68
2021/11/13 04:46:36;;;;;;;130.27;51.90;;;6.20;99.90;;;;;;5095762;28;20379;-68
2021/11/13 04:49:03;;;;;;;109.13;51.40;;;6.10;99.90;;;;;;5077065;28;20107;-68
2021/11/13 04:51:28;;;;;;;123.18;48.17;;;6.10;99.90;;;;;;5095310;28;20390;-68
2021/11/13 04:53:54;;;;;;;124.20;51.38;;;6.10;99.90;;;;;;5094778;28;20032;-68
2021/11/13 04:56:19;;;;;;;114.80;50.22;;;6.20;99.90;;;;;;5092879;28;20030;-68
2021/11/13 04:58:45;;;;;;;136.77;52.58;;;6.20;99.90;;;;;;5094912;28;20035;-68
2021/11/13 05:01:11;;;;;;;119.95;52.80;;;6.10;99.90;;;;;;5087526;28;20028;-68
2021/11/13 05:03:37;;;;;;;121.53;52.53;;;6.10;99.90;;;;;;5084405;28;20016;-68
2021/11/13 05:06:02;;;;;;;129.02;51.58;;;6.10;99.90;;;;;;5080295;28;20028;-68
2021/11/13 05:08:28;;;;;;;129.38;52.38;;;6.20;99.90;;;;;;5074823;28;20023;-68
2021/11/13 05:10:53;;;;;;;124.45;51.50;;;6.10;99.90;;;;;;5083673;28;20039;-68
2021/11/13 05:13:20;;;;;;;121.65;51.42;;;6.10;99.90;;;;;;5094781;28;20027;-68
2021/11/13 05:15:46;;;;;;;130.75;52.60;;;6.10;99.90;;;;;;5087477;28;20501;-68
2021/11/13 05:18:12;;;;;;;135.57;55.55;;;6.10;99.90;;;;;;5074508;28;20384;-68
2021/11/13 05:20:38;;;;;;;139.45;53.70;;;6.10;99.90;;;;;;5087436;28;20016;-68
2021/11/13 05:23:05;;;;;;;132.85;51.45;;;6.10;99.90;;;;;;5094328;28;20024;-68
2021/11/13 05:25:31;;;;;;;121.22;52.08;;;6.20;99.90;;;;;;5089539;28;20090;-68
2021/11/13 05:27:57;;;;;;;117.65;51.08;;;6.20;99.90;;;;;;5074713;28;20024;-68
2021/11/13 05:30:24;;;;;;;116.53;49.80;;;6.20;99.90;;;;;;5074361;28;20032;-68
2021/11/13 05:32:50;;;;;;;131.60;53.30;;;6.20;99.90;;;;;;5074041;28;20036;-68
2021/11/13 05:35:17;;;;;;;128.02;52.47;;;6.20;99.90;;;;;;5084033;28;20028;-68
2021/11/13 05:37:44;;;;;;;134.32;52.30;;;6.20;99.90;;;;;;5094750;28;20024;-68
2021/11/13 05:40:11;;;;;;;118.80;52.78;;;6.20;99.90;;;;;;5093642;28;20074;-68
2021/11/13 05:42:37;;;;;;;125.70;52.30;;;6.20;99.90;;;;;;5094223;28;20024;-68
2021/11/13 05:45:05;;;;;;;112.45;50.08;;;6.20;99.90;;;;;;5079266;28;20017;-68
2021/11/13 05:47:31;;;;;;;112.20;49.33;;;6.20;99.90;;;;;;5073419;28;20026;-68
2021/11/13 05:49:56;;;;;;;132.93;52.30;;;6.30;99.90;;;;;;5073830;28;20032;-68
2021/11/13 05:52:22;;;;;;;122.40;51.22;;;6.30;99.90;;;;;;5073780;28;20032;-68
2021/11/13 05:54:48;;;;;;;113.72;50.33;;;6.30;99.90;;;;;;5075417;28;20103;-68
2021/11/13 05:57:14;;;;;;;128.35;53.00;;;6.30;99.90;;;;;;5078232;28;20098;-68
2021/11/13 05:59:40;;;;;;;118.35;50.95;;;6.30;99.90;;;;;;5093852;28;20438;-68
2021/11/13 06:02:05;;;;;;;120.90;51.35;;;6.20;99.90;;;;;;5071609;28;20118;-67
2021/11/13 06:04:31;;;;;;;114.95;49.00;;;6.20;99.90;;;;;;5073750;28;20067;-68
2021/11/13 06:06:57;;;;;;;121.47;51.50;;;6.20;99.90;;;;;;5073490;28;20016;-68
2021/11/13 06:09:22;;;;;;;123.95;51.50;;;6.20;99.90;;;;;;5073402;28;20020;-67
2021/11/13 06:11:48;;;;;;;110.07;49.83;;;6.20;99.90;;;;;;5073595;28;20043;-68
2021/11/13 06:14:13;;;;;;;125.78;51.95;;;6.30;99.90;;;;;;5073645;28;20037;-68
2021/11/13 06:16:39;;;;;;;115.90;49.75;;;6.30;99.90;;;;;;5075095;28;20032;-68
2021/11/13 06:19:05;;;;;;;128.00;53.50;;;6.30;99.90;;;;;;5073442;28;20095;-68
2021/11/13 06:21:30;;;;;;;118.60;52.22;;;6.30;99.90;;;;;;5089805;28;20020;-67
2021/11/13 06:23:56;;;;;;;123.80;51.78;;;6.30;99.90;;;;;;5093407;28;20475;-68
2021/11/13 06:26:22;;;;;;;118.63;51.65;;;6.30;99.90;;;;;;5091878;28;20495;-68
2021/11/13 06:28:47;;;;;;;105.07;47.97;;;6.30;99.90;;;;;;5094012;28;20383;-68
2021/11/13 06:31:13;;;;;;;120.72;52.60;;;6.30;99.90;;;;;;5087120;28;20487;-68
2021/11/13 06:33:39;;;;;;;116.60;50.65;;;6.30;99.90;;;;;;5076941;28;20043;-68
2021/11/13 06:36:05;;;;;;;121.70;51.60;;;6.30;99.90;;;;;;5074719;28;20032;-68
2021/11/13 06:38:31;;;;;;;119.10;50.33;;;6.40;99.90;;;;;;5093244;28;20024;-68
2021/11/13 06:40:56;;;;;;;108.07;50.28;;;6.30;99.90;;;;;;5091365;28;20158;-67
2021/11/13 06:43:22;;;;;;;113.97;50.53;;;6.40;99.90;;;;;;5092675;28;20100;-68
2021/11/13 06:45:48;;;;;;;114.40;48.70;;;6.40;99.90;;;;;;5088825;28;20074;-68
2021/11/13 06:48:13;;;;;;;125.20;52.10;;;6.40;99.90;;;;;;5073014;28;20060;-68
2021/11/13 06:50:39;;;;;;;110.72;48.53;;;6.40;99.90;;;;;;5084706;28;20035;-68
2021/11/13 06:53:05;;;;;;;110.90;49.70;;;6.40;99.90;;;;;;5092509;28;20074;-68
2021/11/13 06:55:31;;;;;;;108.82;47.22;;;6.40;99.90;;;;;;5090675;28;20024;-68
2021/11/13 06:57:57;;;;;;;121.57;49.92;;;6.40;99.90;;;;;;5072864;28;20024;-68
2021/11/13 07:00:23;;;;;;;119.63;50.50;;;6.40;99.90;;;;;;5073156;28;20035;-68
2021/11/13 07:02:49;;;;;;;117.18;48.72;;;6.40;99.90;;;;;;5087926;28;20425;-68
2021/11/13 07:05:15;;;;;;;110.03;50.78;;;6.40;99.90;;;;;;5093363;28;20016;-68
2021/11/13 07:07:40;;;;;;;114.38;49.78;;;6.40;99.90;;;;;;5080057;28;20036;-68
2021/11/13 07:10:10;;;;;;;108.15;49.53;;;6.40;99.90;;;;;;5082036;28;20056;-68
2021/11/13 07:12:37;;;;;;;101.70;48.88;;;6.40;99.90;;;;;;5092957;28;20024;-68
2021/11/13 07:15:04;;;;;;;121.60;49.95;;;6.40;99.90;;;;;;5092982;28;20081;-68
2021/11/13 07:17:29;;;;;;;107.28;49.92;;;6.40;99.90;;;;;;5082736;28;20025;-68
2021/11/13 07:19:55;;;;;;;121.82;50.30;;;6.50;99.90;;;;;;5072193;28;20089;-68
2021/11/13 07:22:21;;;;;;;103.95;47.20;;;6.40;99.90;;;;;;5072641;28;20031;-68
2021/11/13 07:24:46;;;;;;;109.20;46.88;;;6.40;99.90;;;;;;5072643;28;20099;-68
2021/11/13 07:27:13;;;;;;;118.50;50.15;;;6.50;99.90;;;;;;5072382;28;20099;-67
2021/11/13 07:29:47;;;;;;;110.65;50.40;;;6.50;99.90;;;;;;5072641;28;20048;-67
2021/11/13 07:32:15;;;;;;;114.82;47.60;;;6.50;99.90;;;;;;5081451;22;20033;-68
2021/11/13 07:34:42;;;;;;;107.80;47.55;;;6.50;99.90;;;;;;5108623;28;20115;-66
2021/11/13 07:37:08;;;;;;;104.22;48.40;;;6.50;99.90;;;;;;5092899;28;20028;-66
2021/11/13 07:39:34;;;;;;;114.82;50.22;;;6.50;99.90;;;;;;5094504;28;20054;-65
2021/11/13 07:41:59;;;;;;;102.43;46.25;;;6.50;99.90;;;;;;5092643;28;20479;-66
2021/11/13 07:44:25;;;;;;;104.10;47.67;;;6.50;99.90;;;;;;5105069;28;20028;-65
2021/11/13 07:46:50;;;;;;;117.30;51.40;;;6.50;99.90;;;;;;5102013;28;20494;-65
2021/11/13 07:49:16;;;;;;;103.18;47.40;;;6.50;99.90;;;;;;5096587;28;20038;-66
2021/11/13 07:51:42;;;;;;;96.78;44.83;;;6.60;99.90;;;;;;5096305;28;20111;-66
2021/11/13 07:54:10;;;;;;;110.90;47.83;;;6.60;99.90;;;;;;5096393;28;20024;-66
2021/11/13 07:56:36;;;;;;;108.13;45.70;;;6.60;99.90;;;;;;5096492;28;20076;-66
2021/11/13 07:59:02;;;;;;;109.60;47.10;;;6.60;99.90;;;;;;5096362;28;20437;-66
2021/11/13 08:01:27;;;;;;;116.45;49.08;;;6.60;99.90;;;;;;5109975;28;20015;-66
2021/11/13 08:03:53;;;;;;;126.05;51.15;;;6.60;99.90;;;;;;5116716;28;20467;-66
2021/11/13 08:06:19;;;;;;;106.88;47.70;;;6.60;99.90;;;;;;5105978;28;20023;-66
2021/11/13 08:08:44;;;;;;;115.30;50.63;;;6.60;99.90;;;;;;5114182;28;20039;-66
2021/11/13 08:11:10;;;;;;;113.00;49.78;;;6.60;99.90;;;;;;5095626;28;20028;-66
2021/11/13 08:13:39;;;;;;;114.53;49.95;;;6.60;99.90;;;;;;5095837;28;20459;-66
2021/11/13 08:16:05;;;;;;;109.75;48.58;;;6.70;99.90;;;;;;5110604;28;20024;-66
2021/11/13 08:18:30;;;;;;;120.32;50.05;;;6.70;99.90;;;;;;5116346;28;20028;-66
2021/11/13 08:20:59;;;;;;;117.50;50.65;;;6.70;99.90;;;;;;5102393;28;20060;-66
2021/11/13 08:23:24;;;;;;;128.45;52.50;;;6.70;99.90;;;;;;5095571;28;20412;-65
2021/11/13 08:25:52;;;;;;;110.32;50.10;;;6.80;99.90;;;;;;5115763;28;20031;-66
2021/11/13 08:28:19;;;;;;;122.13;48.78;;;6.80;99.90;;;;;;5114904;28;20032;-66
2021/11/13 08:30:45;;;;;;;108.15;48.47;;;6.90;99.90;;;;;;5095834;28;20429;-66
2021/11/13 08:33:12;;;;;;;107.00;47.53;;;6.90;99.90;;;;;;5094898;28;20122;-65
2021/11/13 08:35:39;;;;;;;119.85;51.38;;;6.90;99.90;;;;;;5095785;28;20440;-66
2021/11/13 08:38:07;;;;;;;116.93;49.05;;;6.90;99.90;;;;;;5095288;28;20395;-66
2021/11/13 08:40:33;;;;;;;128.55;51.53;;;7.00;99.90;;;;;;5095331;28;20479;-66
2021/11/13 08:42:59;;;;;;;109.80;48.45;;;7.00;99.90;;;;;;5095260;28;20032;-65
2021/11/13 08:45:25;;;;;;;115.22;51.50;;;7.00;99.90;;;;;;5076612;28;20031;-65
2021/11/13 08:47:51;;;;;;;116.80;50.65;;;7.00;99.90;;;;;;5095784;28;20028;-66
2021/11/13 08:50:23;;;;;;;121.00;52.90;;;7.00;99.90;;;;;;5094998;28;20031;-66
2021/11/13 08:52:51;;;;;;;111.68;48.78;;;7.00;99.90;;;;;;5095374;28;20024;-66
2021/11/13 08:55:17;;;;;;;119.15;52.20;;;7.00;99.90;;;;;;5095385;28;20107;-66
2021/11/13 08:57:43;;;;;;;117.32;50.60;;;7.00;99.90;;;;;;5094450;28;20475;-65
2021/11/13 09:00:11;;;;;;;103.55;47.35;;;7.00;99.90;;;;;;5095399;28;20028;-65
2021/11/13 09:02:37;;;;;;;113.93;49.42;;;7.00;99.90;;;;;;5109533;28;20496;-65
2021/11/13 09:05:04;;;;;;;110.82;50.55;;;7.00;99.90;;;;;;5095109;28;20060;-65
2021/11/13 09:07:29;;;;;;;110.70;50.45;;;7.00;99.90;;;;;;5095312;28;20109;-65
2021/11/13 09:09:55;;;;;;;106.70;49.50;;;7.00;99.90;;;;;;5112448;28;20481;-66
2021/11/13 09:12:26;;;;;;;112.90;50.67;;;7.00;99.90;;;;;;5115150;28;20020;-66
2021/11/13 09:14:58;;;;;;;120.03;51.17;;;7.10;99.90;;;;;;5105892;28;20028;-66
2021/11/13 09:17:24;;;;;;;117.78;52.35;;;7.10;99.90;;;;;;5094884;28;20376;-66
2021/11/13 09:19:51;;;;;;;109.43;50.60;;;7.10;99.90;;;;;;5094572;28;20095;-65
2021/11/13 09:22:17;;;;;;;118.82;49.80;;;7.10;99.90;;;;;;5093729;28;20509;-65
2021/11/13 09:24:43;;;;;;;114.05;50.78;;;7.20;99.90;;;;;;5094029;28;20099;-65
2021/11/13 09:27:09;;;;;;;109.80;49.17;;;7.20;99.90;;;;;;5094478;28;20061;-65
2021/11/13 09:29:34;;;;;;;112.85;51.80;;;7.30;99.90;;;;;;5094430;28;20065;-66
2021/11/13 09:32:00;;;;;;;123.53;50.05;;;7.30;99.90;;;;;;5109019;28;20031;-66
2021/11/13 09:34:26;;;;;;;116.53;51.33;;;7.30;99.90;;;;;;5105099;28;20383;-66
2021/11/13 09:36:52;;;;;;;121.65;50.72;;;7.30;99.90;;;;;;5094344;28;20085;-66
2021/11/13 09:39:18;;;;;;;108.57;48.40;;;7.30;99.90;;;;;;5099547;28;20427;-66
2021/11/13 09:41:46;;;;;;;112.75;49.20;;;7.30;99.90;;;;;;5114781;28;20024;-66
2021/11/13 09:44:12;;;;;;;114.72;50.38;;;7.30;99.90;;;;;;5114751;28;20027;-65
2021/11/13 09:46:38;;;;;;;113.78;47.17;;;7.30;99.90;;;;;;5097233;28;20024;-65
2021/11/13 09:49:05;;;;;;;104.70;47.38;;;7.30;99.90;;;;;;5094050;28;20476;-65
2021/11/13 09:51:31;;;;;;;116.43;50.47;;;7.30;99.90;;;;;;5096340;28;20027;-65
2021/11/13 09:53:57;;;;;;;107.70;47.65;;;7.40;99.90;;;;;;5094174;28;20031;-65
2021/11/13 09:56:24;;;;;;;111.28;48.78;;;7.40;99.90;;;;;;5103256;28;20054;-65
2021/11/13 09:58:50;;;;;;;110.20;50.45;;;7.40;99.90;;;;;;5108802;28;20470;-65
2021/11/13 10:01:17;;;;;;;105.13;47.72;;;7.40;99.90;;;;;;5114235;28;20092;-65
2021/11/13 10:03:43;;;;;;;113.47;49.05;;;7.50;99.90;;;;;;5105042;28;20020;-65
2021/11/13 10:06:13;;;;;;;109.53;49.88;;;7.50;99.90;;;;;;5093988;28;20032;-65
2021/11/13 10:08:42;;;;;;;111.15;48.83;;;7.60;99.90;;;;;;5094007;28;20056;-66
2021/11/13 10:11:12;;;;;;;101.95;48.10;;;7.60;99.90;;;;;;5101503;28;20024;-65
2021/11/13 10:13:43;;;;;;;114.47;47.72;;;7.60;99.90;;;;;;5114324;28;20055;-65
2021/11/13 10:16:16;;;;;;;111.30;48.20;;;7.70;99.90;;;;;;5109488;28;20026;-65
2021/11/13 10:18:48;;;;;;;115.70;48.57;;;7.80;99.90;;;;;;5113656;28;20028;-65
2021/11/13 10:21:18;;;;;;;111.82;50.28;;;7.90;99.90;;;;;;5099273;28;20429;-65
2021/11/13 10:23:57;;;;;;;102.55;48.80;;;7.90;99.90;;;;;;5093443;28;20024;-65
2021/11/13 10:26:28;;;;;;;99.30;48.35;;;7.80;99.90;;;;;;5093264;28;20020;-65
2021/11/13 10:29:02;;;;;;;116.78;48.83;;;7.80;99.90;;;;;;5093224;28;20027;-65
2021/11/13 10:31:37;;;;;;;108.47;48.30;;;7.70;99.90;;;;;;5093371;28;20479;-65
2021/11/13 10:34:08;;;;;;;103.07;47.55;;;7.80;99.90;;;;;;5100647;28;20042;-65
2021/11/13 10:36:43;;;;;;;107.10;49.75;;;7.90;99.90;;;;;;5094257;28;20103;-65
2021/11/13 10:39:18;;;;;;;93.70;45.65;;;8.00;99.90;;;;;;5093548;28;20475;-65
2021/11/13 10:41:45;;;;;;;104.97;47.22;;;8.00;99.90;;;;;;5110871;28;20028;-65
2021/11/13 10:44:11;;;;;;;110.78;51.75;;;8.00;99.90;;;;;;5113595;28;20035;-65
2021/11/13 10:46:42;;;;;;;118.45;48.20;;;7.90;99.90;;;;;;5111295;28;20024;-65
2021/11/13 10:49:08;;;;;;;107.50;48.03;;;8.00;99.90;;;;;;5113884;28;20024;-66
2021/11/13 10:51:34;;;;;;;102.20;45.75;;;7.90;99.90;;;;;;5096513;28;20035;-66
2021/11/13 10:54:14;;;;;;;113.22;49.85;;;7.90;99.90;;;;;;5093000;28;20028;-66
2021/11/13 10:56:45;;;;;;;113.05;48.13;;;7.80;99.90;;;;;;5107285;28;20097;-65
2021/11/13 10:59:11;;;;;;;101.15;45.35;;;7.90;99.90;;;;;;5113467;28;20486;-65
2021/11/13 11:01:38;;;;;;;107.82;45.97;;;7.90;99.90;;;;;;5108139;28;20471;-65
2021/11/13 11:04:16;;;;;;;109.43;47.22;;;7.90;99.90;;;;;;5092994;28;20501;-65
2021/11/13 11:06:46;;;;;;;102.00;50.03;;;8.00;99.90;;;;;;5095003;28;20028;-65
2021/11/13 11:09:14;;;;;;;135.57;49.30;;;7.90;99.90;;;;;;5102910;28;20024;-65
2021/11/13 11:11:40;;;;;;;106.47;48.40;;;7.90;99.90;;;;;;5113685;28;20390;-65
2021/11/13 11:14:07;;;;;;;102.47;46.88;;;8.00;99.90;;;;;;5108359;28;20024;-65
2021/11/13 11:16:37;;;;;;;102.03;46.95;;;8.00;99.90;;;;;;5092956;28;20119;-65
2021/11/13 11:19:12;;;;;;;107.18;51.08;;;8.00;99.90;;;;;;5092854;28;20035;-65
2021/11/13 11:21:37;;;;;;;120.25;46.08;;;8.00;99.90;;;;;;5110252;28;20019;-67
2021/11/13 11:24:34;;;;;;;113.45;49.53;;;8.00;99.90;;;;;;5116332;28;20406;-67
2021/11/13 11:27:08;;;;;;;102.72;46.65;;;8.00;99.90;;;;;;5098198;28;20093;-66
2021/11/13 11:29:37;;;;;;;115.40;48.80;;;8.00;99.90;;;;;;5096736;28;20567;-65
2021/11/13 11:32:06;;;;;;;108.00;46.88;;;7.90;99.90;;;;;;5096677;28;20392;-65
2021/11/13 11:34:38;;;;;;;111.45;47.58;;;7.90;99.90;;;;;;5110208;28;20102;-65
2021/11/13 11:37:18;;;;;;;114.40;49.63;;;8.00;99.90;;;;;;5117006;28;20020;-65
2021/11/13 11:39:48;;;;;;;106.65;44.55;;;7.90;99.90;;;;;;5116371;28;20027;-65
2021/11/13 11:42:14;;;;;;;110.47;47.60;;;8.00;99.90;;;;;;5116847;28;20069;-65
2021/11/13 11:44:42;;;;;;;118.63;50.03;;;7.90;99.90;;;;;;5117158;28;20024;-65
2021/11/13 11:47:13;;;;;;;103.70;45.38;;;8.00;99.90;;;;;;5117277;28;20383;-65
2021/11/13 11:49:41;;;;;;;111.85;47.80;;;8.00;99.90;;;;;;5116776;28;20024;-65
2021/11/13 11:52:08;;;;;;;99.13;44.20;;;8.00;99.90;;;;;;5116518;28;20023;-65
2021/11/13 11:54:33;;;;;;;111.75;48.85;;;8.10;99.90;;;;;;5116696;28;20035;-65
2021/11/13 11:56:59;;;;;;;125.03;50.85;;;8.10;99.90;;;;;;5098671;28;20028;-65
2021/11/13 11:59:28;;;;;;;118.95;50.13;;;8.10;99.90;;;;;;5096146;28;20028;-65
2021/11/13 12:02:09;;;;;;;101.88;44.92;;;8.10;99.90;;;;;;5097742;28;20016;-65
2021/11/13 12:04:34;;;;;;;114.97;49.50;;;8.10;99.90;;;;;;5096399;28;20073;-65
2021/11/13 12:07:00;;;;;;;106.80;45.92;;;8.10;99.90;;;;;;5115884;28;20027;-65
2021/11/13 12:09:27;;;;;;;100.15;45.60;;;8.10;99.90;;;;;;5116271;28;20098;-65
2021/11/13 12:12:16;;;;;;;94.93;42.08;;;8.10;99.90;;;;;;5116608;28;20106;-65
2021/11/13 12:14:42;;;;;;;93.40;41.42;;;8.20;99.90;;;;;;5116044;28;20031;-65
2021/11/13 12:17:23;;;;;;;97.15;44.33;;;8.20;99.90;;;;;;5111336;28;20111;-65
2021/11/13 12:20:04;;;;;;;121.63;48.72;;;8.20;99.90;;;;;;5113871;28;20435;-65
2021/11/13 12:22:51;;;;;;;117.10;48.05;;;8.20;99.90;;;;;;5095709;28;20073;-65
2021/11/13 12:25:21;;;;;;;112.20;45.20;;;8.20;99.90;;;;;;5098413;28;20024;-65
2021/11/13 12:28:13;;;;;;;129.15;49.15;;;8.20;99.90;;;;;;5115795;28;20030;-65